Attività con fini culturali e ricreativi - Codice Fiscale 91122750689  

Pescara - LIBP

Metar : METAR LIBP 181650Z 22011KT CAVOK 13/M05 Q1014=

Taf : TAF LIBP 181700Z 1818/1918 24014KT 9999 FEW030=

Scopri come leggere i bollettini codificati...


Storico

LIBP 181650Z 22011KT CAVOK 13/M05 Q1014
LIBP 181550Z 22013KT CAVOK 13/M07 Q1014
LIBP 181450Z 21017KT CAVOK 15/M10 Q1014
LIBP 181350Z 19011KT CAVOK 15/M12 Q1015
LIBP 181250Z 20010KT 160V220 CAVOK 16/M13 Q1016
LIBP 181150Z 21008KT CAVOK 16/M13 Q1017
LIBP 181050Z 21011KT CAVOK 13/M12 Q1019
LIBP 180950Z 21011KT CAVOK 12/M10 Q1019
LIBP 180850Z 22012KT CAVOK 10/M09 Q1019
LIBP 180750Z 24007KT CAVOK 06/M07 Q1019
LIBP 180650Z 22005KT CAVOK M01/M07 Q1018
LIBP 180450Z AUTO 26003KT 9999 NCD 00/M07 Q1018
LIBP 180350Z AUTO 22005KT 9999 NCD 01/M07 Q1017
LIBP 180250Z AUTO 24005KT 9999 NCD 03/M08 Q1017
LIBP 180150Z AUTO 24007KT 9999 NCD 04/M08 Q1017
LIBP 180050Z AUTO 25003KT 230V310 9999 NCD 08/M13 Q1016
LIBP 172350Z AUTO 30006KT 200V330 9999 NCD 10/M13 Q1015
LIBP 172250Z AUTO 32008KT 280V340 9999 NCD 10/M12 Q1015
LIBP 172150Z 31010KT 270V340 CAVOK 11/M11 Q1013
LIBP 172050Z 31010G21KT 270V340 CAVOK 11/M11 Q1012
LIBP 171950Z 32011KT 290V350 CAVOK 11/M11 Q1010
LIBP 171850Z 31007KT 280V340 9999 SCT090 12/M10 Q1009
LIBP 171750Z 30009KT 260V340 9999 SCT050 SCT090 13/M06 Q1007
LIBP 171650Z 28007KT 9999 SCT050 SCT090 12/M01 Q1006
LIBP 171550Z 29015KT 260V320 9999 FEW010 SCT040 12/M03 Q1004
LIBP 171450Z 27009KT 230V300 9999 -RA FEW010 BKN030 13/M02 Q1003
LIBP 171350Z 34019G35KT 9999 -RA FEW020 11/02 Q1002
LIBP 171258Z 01017G28KT 340V050 9999 FEW040 12/05 Q1001
LIBP 171250Z 35011KT 290V030 9999 FEW070 17/03 Q1000
LIBP 171203Z 29015G25KT 250V330 CAVOK 17/02 Q0999
LIBP 171150Z 29011KT 260V340 CAVOK 18/03 Q0998
LIBP 171113Z 32010KT 280V350 9999 FEW080 17/03 Q0999
LIBP 171050Z 26005KT 200V330 9999 FEW080 18/04 Q0998
LIBP 170950Z 24010KT 9999 FEW060 17/03 Q0999
LIBP 170850Z 23007G20KT 160V310 9999 FEW060 19/03 Q0999
LIBP 170750Z 23010KT 9999 FEW050 17/04 Q0998
LIBP 170650Z 24017G27KT 9999 FEW040 19/03 Q0999
LIBP 170559Z AUTO 19011KT 160V230 9999 SCT076/// 18/04 Q0999
LIBP 170550Z AUTO 26015KT 220V290 9999 FEW082/// 18/03 Q1000
LIBP 170513Z AUTO 18010KT 9999 FEW076/// 16/04 Q0999
LIBP 170450Z AUTO 24006KT 190V270 9999 NCD 16/04 Q1000
LIBP 170350Z AUTO 23006KT 200V260 9999 FEW083/// 16/04 Q1001
LIBP 170250Z AUTO 21012KT 9999 NCD 16/05 Q1002
LIBP 170150Z AUTO 23011KT 9999 NCD 16/05 Q1003
LIBP 170050Z AUTO 22011KT 9999 NCD 15/05 Q1004
LIBP 162350Z AUTO 23012KT 9999 NCD 16/05 Q1005
LIBP 162250Z AUTO 22016KT 9999 NCD 16/05 Q1006
LIBP 162150Z 23014G24KT CAVOK 15/05 Q1007
LIBP 162050Z 23015KT CAVOK 16/05 Q1007
LIBP 161950Z 23013KT CAVOK 15/05 Q1007
LIBP 161850Z 23017KT CAVOK 16/05 Q1007
LIBP 161750Z 22019G29KT CAVOK 15/05 Q1007
LIBP 161650Z 22013KT CAVOK 14/05 Q1008
LIBP 161550Z 23012KT 210V270 CAVOK 15/05 Q1008
LIBP 161450Z 23016KT CAVOK 17/05 Q1008
LIBP 161350Z 21014KT 9999 FEW090 17/06 Q1009
LIBP 161250Z 21018KT 9999 FEW090 17/05 Q1009
LIBP 161150Z 20017KT 9999 FEW090 17/05 Q1010
LIBP 161050Z 22019KT 9999 FEW090 17/04 Q1011
LIBP 160950Z 22015KT 9999 SCT090 15/04 Q1013
LIBP 160850Z 22015KT 9999 SCT090 14/04 Q1013
LIBP 160750Z 21010KT 9999 FEW050 12/04 Q1013
LIBP 160650Z 02003KT 350V070 9999 SCT050 08/03 Q1014
LIBP 160550Z AUTO VRB03KT 9999 OVC150/// 08/03 Q1014
LIBP 160450Z AUTO 21014KT 9999 BKN160/// 11/03 Q1014
LIBP 160400Z AUTO 22014KT 9999 FEW170/// SCT200/// 10/04 Q1014
LIBP 160350Z AUTO VRB04KT 9000 BKN190/// 04/03 Q1014
LIBP 160250Z AUTO 03003KT 360V070 2300 BR SCT210/// 02/01 Q1016
LIBP 160156Z AUTO 21004KT 190V260 2500 BR NCD 02/02 Q1017
LIBP 160150Z AUTO 22003KT 180V270 4200 BR NCD 03/02 Q1017
LIBP 160116Z AUTO 22005KT 150V250 1900 BCFG NCD 02/02 Q1018
LIBP 160104Z AUTO VRB02KT 1400 R22/0600D BCFG NCD 02/01 Q1018
LIBP 160055Z AUTO VRB02KT 0600 R22/P1500N FG NCD 02/01 Q1018
LIBP 160050Z AUTO VRB01KT 1200 R22/P1500N BR NCD 03/02 Q1018
LIBP 160017Z AUTO VRB01KT 2400 BR NCD 03/02 Q1018
LIBP 160016Z AUTO VRB01KT 4100 BR NCD 03/02 Q1018
LIBP 160001Z AUTO VRB01KT 2500 BR NCD 04/03 Q1018
LIBP 152350Z AUTO 34003KT 300V030 4400 BR NCD 04/03 Q1019
LIBP 152316Z AUTO 21005KT 4900 BR FEW100/// 04/03 Q1019
LIBP 152250Z AUTO 21003KT 190V270 8000 FEW100/// 05/03 Q1020
LIBP 151350Z 03008KT 9999 FEW030 SCT065 10/05 Q1022
LIBP 151250Z 04007KT 9999 FEW020 SCT065 11/05 Q1023
LIBP 151150Z 01006KT 9999 FEW020 SCT065 11/05 Q1023
LIBP 151050Z 05004KT 350V100 9999 FEW025 11/05 Q1024
LIBP 150950Z 22004KT CAVOK 09/04 Q1024
LIBP 150850Z 23003KT 9999 SCT065 07/05 Q1024
LIBP 150750Z VRB02KT 9999 BKN065 06/04 Q1024
LIBP 150650Z 23004KT 9999 BKN065 05/04 Q1023
LIBP 150550Z AUTO 24004KT 9000 OVC070/// 05/04 Q1023
LIBP 150450Z AUTO 20007KT 7000 FEW025/// OVC072/// 04/03 Q1023
LIBP 150350Z AUTO 22004KT 6000 OVC077/// 04/03 Q1023
LIBP 150250Z AUTO 21004KT 5000 BR BKN085/// BKN160/// 03/03 Q1023
LIBP 150150Z AUTO 22005KT 5000 BR BKN098/// BKN150/// 03/02 Q1023
LIBP 150050Z AUTO 21005KT 3600 BR SCT130/// 02/01 Q1023
LIBP 142358Z AUTO 24002KT 4900 BR FEW029/// 04/03 Q1023
LIBP 142350Z AUTO 23004KT 5000 BR SCT029/// 04/03 Q1023

Informazioni elaborate utilizzando, tra l’altro, dati e prodotti del Servizio Meteorologico dell’Aeronautica Militare pubblicati sul sito www.meteoam.it e della National Oceanic and Atmospheric Administration (NOAA)

Ultimi caricamenti...


MM80730 PS-30 AB-206 Polizia di Stato

 


MM80730 PS-30 AB-206 Polizia di Stato

 


I-ADLW Mistral Air ATR 72-500 (72-212A)

Questo sito non utilizza cookie di profilazione. Il sito utilizza cookie tecnici, di analisi anonima di prima parte e di terze parti per servizi di social network.